Bar Nunn, Wyoming
Current Conditions -  °F | °C
As of 11:53 AM on Thursday 27 Nov 2014 (Local Time) from KCPR Reporting Station
Clear Clear  
Wind Chill: 38°   Ceiling: Unl
Heat Index: 47°   Visibility: 10mi
Dew Point: 25°   Wind: 26mph
Humidity: 42%   Direction: 220°SW
Pressure: 30.06"   Gusts: 38mph
Location:  42.84°N, 106.275°W
Report Text: KCPR 271853Z 22023G33KT 10SM CLR 08/M04 A3006 RMK AO2 PK WND 22036/1830 SLP168 T00831039
Loading
Personal Weather Stations






























Interactive Weather Map New forecast layout! Learn more

10-Day Weather Forecast

Advertisements
Track Severe Weather on mobile